Time;durP1;ratioP1;P1;durP2;ratioP2;P2;SDS_P1;SDS_P2;PMS_P1;PMS_P2;Temp;Humidity;BMP_temperature;BMP_pressure;BME280_temperature;BME280_humidity;BME280_pressure;Samples;Min_cycle;Max_cycle;Signal;HPM_P1;HPM_P2
2023/05/07 00:08:31;;;;;;;5.87;2.83;;;13.00;99.90;;;;;;21052812;28;20064;-73
2023/05/07 00:18:32;;;;;;;4.30;2.47;;;12.40;99.90;;;;;;20996668;28;20064;-73
2023/05/07 00:28:33;;;;;;;3.80;2.10;;;11.80;99.90;;;;;;20978476;28;20062;-73
2023/05/07 00:38:33;;;;;;;6.40;2.27;;;12.20;99.90;;;;;;20977925;28;20032;-73
2023/05/07 00:48:34;;;;;;;5.17;2.70;;;12.40;99.90;;;;;;20994605;28;20048;-73
2023/05/07 00:58:35;;;;;;;4.67;2.93;;;12.60;99.90;;;;;;20975812;28;20120;-73
2023/05/07 01:08:39;;;;;;;4.57;2.50;;;12.70;99.90;;;;;;20991772;28;20055;-73
2023/05/07 01:18:40;;;;;;;7.57;2.30;;;12.60;99.90;;;;;;20973079;28;20047;-74
2023/05/07 01:28:41;;;;;;;2.57;1.93;;;12.40;99.90;;;;;;20991951;28;20020;-74
2023/05/07 01:38:42;;;;;;;4.47;2.00;;;12.30;99.90;;;;;;20981860;28;20029;-74
2023/05/07 01:48:45;;;;;;;3.75;2.50;;;12.20;99.90;;;;;;20973403;28;20036;-74
2023/05/07 01:58:46;;;;;;;8.65;2.15;;;12.10;99.90;;;;;;20972791;28;20036;-74
2023/05/07 02:08:47;;;;;;;5.10;2.50;;;12.00;99.90;;;;;;20971550;28;20407;-74
2023/05/07 02:18:49;;;;;;;11.88;2.30;;;11.70;99.90;;;;;;20971662;28;20033;-74
2023/05/07 02:28:50;;;;;;;7.73;3.03;;;11.60;99.90;;;;;;20987285;28;20574;-74
2023/05/07 02:38:52;;;;;;;5.28;2.53;;;11.20;99.90;;;;;;20987942;28;20025;-74
2023/05/07 02:48:53;;;;;;;7.00;2.83;;;10.80;99.90;;;;;;20994491;28;20032;-74
2023/05/07 02:58:54;;;;;;;5.00;2.27;;;10.90;99.90;;;;;;21054357;28;20020;-74
2023/05/07 03:08:58;;;;;;;4.03;2.20;;;10.80;99.90;;;;;;21004618;28;20029;-74
2023/05/07 03:18:59;;;;;;;4.37;2.27;;;10.80;99.90;;;;;;20948618;28;20441;-73
2023/05/07 03:29:00;;;;;;;7.28;2.45;;;11.00;99.90;;;;;;20992655;28;20028;-73
2023/05/07 03:39:01;;;;;;;3.63;2.77;;;11.50;99.90;;;;;;20999701;28;20501;-73
2023/05/07 03:49:10;;;;;;;5.55;2.85;;;11.40;99.90;;;;;;20981679;28;20035;-74
2023/05/07 03:59:12;;;;;;;4.93;3.57;;;11.40;99.90;;;;;;20980950;28;20052;-74
2023/05/07 04:09:14;;;;;;;10.98;3.50;;;11.50;99.90;;;;;;20977966;28;20036;-74
2023/05/07 04:19:15;;;;;;;7.20;3.22;;;11.20;99.90;;;;;;20992712;28;20483;-74
2023/05/07 04:29:17;;;;;;;5.57;2.87;;;11.30;99.90;;;;;;20974288;28;20133;-74
2023/05/07 04:39:18;;;;;;;;;;;11.50;99.90;;;;;;20991277;28;20290;-73
2023/05/07 04:49:21;;;;;;;12.00;3.38;;;11.70;99.90;;;;;;20976431;28;19920;-74
2023/05/07 04:59:23;;;;;;;4.30;2.83;;;11.90;99.90;;;;;;20971937;28;20559;-74
2023/05/07 05:09:25;;;;;;;7.47;3.45;;;12.00;99.90;;;;;;20976646;28;20036;-73
2023/05/07 05:19:26;;;;;;;10.33;4.10;;;12.20;99.90;;;;;;20971450;28;20475;-73
2023/05/07 05:29:27;;;;;;;13.57;4.57;;;12.50;99.90;;;;;;20970397;28;20045;-74
2023/05/07 05:39:28;;;;;;;12.07;4.10;;;12.80;99.90;;;;;;20969363;28;20517;-74
2023/05/07 05:49:29;;;;;;;8.73;4.60;;;13.10;99.90;;;;;;20967106;28;20039;-75
2023/05/07 05:59:30;;;;;;;6.53;3.47;;;13.80;99.90;;;;;;20995441;28;20052;-75
2023/05/07 06:09:32;;;;;;;6.22;3.40;;;14.20;99.90;;;;;;20978228;28;20025;-73
2023/05/07 06:19:32;;;;;;;4.13;2.70;;;14.30;99.90;;;;;;20883567;28;20060;-75
2023/05/07 06:29:34;;;;;;;7.10;3.22;;;14.30;99.90;;;;;;20947399;28;20611;-75
2023/05/07 06:39:39;;;;;;;6.20;2.83;;;14.80;99.90;;;;;;20994962;28;20093;-75
2023/05/07 06:49:40;;;;;;;6.72;3.03;;;15.70;99.90;;;;;;21011593;28;20552;-74
2023/05/07 06:59:41;;;;;;;4.93;2.60;;;16.70;99.90;;;;;;20974339;28;20036;-73
2023/05/07 07:09:43;;;;;;;3.80;2.55;;;17.80;99.90;;;;;;21007863;28;20120;-76
2023/05/07 07:19:44;;;;;;;11.77;4.05;;;18.20;99.90;;;;;;20977385;28;20090;-72
2023/05/07 07:29:46;;;;;;;2.97;2.22;;;18.50;99.90;;;;;;21015157;28;20420;-74
2023/05/07 07:39:47;;;;;;;6.40;3.75;;;19.10;99.90;;;;;;21025861;28;20067;-74
2023/05/07 07:49:47;;;;;;;5.00;3.20;;;19.30;99.90;;;;;;20963208;28;20498;-76
2023/05/07 07:59:50;;;;;;;9.35;4.20;;;19.50;99.90;;;;;;21013998;28;20490;-76
2023/05/07 08:09:51;;;;;;;26.95;9.95;;;20.50;99.90;;;;;;21020237;28;20048;-77
2023/05/07 08:19:55;;;;;;;6.35;3.38;;;20.40;99.90;;;;;;20967329;28;20104;-77
2023/05/07 08:29:56;;;;;;;2.67;2.13;;;20.20;99.90;;;;;;20973039;28;20056;-76
2023/05/07 08:39:57;;;;;;;4.40;2.37;;;20.10;99.90;;;;;;21004527;28;20028;-77
2023/05/07 08:50:05;;;;;;;6.53;2.08;;;20.90;99.90;;;;;;21056789;28;20448;-77
2023/05/07 09:00:08;;;;;;;4.85;2.20;;;20.00;99.90;;;;;;21055641;28;20118;-76
2023/05/07 09:10:11;;;;;;;22.20;11.73;;;20.20;99.90;;;;;;21012801;28;20036;-76
2023/05/07 09:20:13;;;;;;;5.30;2.80;;;20.20;99.90;;;;;;20982064;28;20032;-76
2023/05/07 09:30:17;;;;;;;2.75;2.10;;;20.40;99.90;;;;;;21024331;28;20032;-75
2023/05/07 09:40:29;;;;;;;5.67;2.40;;;21.10;99.90;;;;;;21010410;28;20063;-75
2023/05/07 09:50:39;;;;;;;7.07;2.60;;;22.20;99.90;;;;;;20974036;28;20119;-74
2023/05/07 10:00:42;;;;;;;2.67;1.90;;;22.60;99.90;;;;;;21021120;28;20032;-75
2023/05/07 10:10:47;;;;;;;4.75;2.42;;;23.40;99.90;;;;;;20972293;28;20064;-75
2023/05/07 10:20:54;;;;;;;4.53;2.35;;;22.20;99.90;;;;;;20970203;28;20521;-75
2023/05/07 10:31:38;;;;;;;8.52;2.13;;;21.80;99.90;;;;;;20970987;28;20106;-75
2023/05/07 10:41:40;;;;;;;3.97;2.10;;;22.20;99.90;;;;;;20949782;28;20036;-75
2023/05/07 10:51:41;;;;;;;2.88;1.70;;;21.30;99.90;;;;;;20986092;28;20554;-75
2023/05/07 11:01:59;;;;;;;3.13;2.00;;;22.00;99.90;;;;;;20999168;28;20395;-74
2023/05/07 11:12:08;;;;;;;4.90;2.50;;;21.50;99.90;;;;;;20991064;28;20024;-75
2023/05/07 11:22:39;;;;;;;5.75;2.58;;;21.20;99.90;;;;;;21067546;28;20166;-75
2023/05/07 11:32:48;;;;;;;5.43;2.67;;;20.40;99.90;;;;;;21076195;28;20031;-74
2023/05/07 11:42:50;;;;;;;6.25;2.30;;;19.80;99.90;;;;;;21024865;28;20061;-75
2023/05/07 11:52:54;;;;;;;6.23;2.80;;;19.90;99.90;;;;;;21036303;28;20051;-75
2023/05/07 12:02:55;;;;;;;5.30;3.83;;;19.90;99.90;;;;;;21028982;28;20040;-75
2023/05/07 12:12:55;;;;;;;6.27;4.07;;;19.60;99.90;;;;;;21065487;28;20067;-75
2023/05/07 12:22:57;;;;;;;5.27;3.73;;;19.50;99.90;;;;;;20993826;28;20020;-74
2023/05/07 12:32:57;;;;;;;10.05;5.10;;;18.90;99.90;;;;;;21005552;28;20024;-77
2023/05/07 12:42:59;;;;;;;5.70;3.53;;;18.50;99.90;;;;;;20992066;28;20078;-76
2023/05/07 12:53:00;;;;;;;;;;;17.80;99.90;;;;;;20998225;28;20124;-77
2023/05/07 13:03:01;;;;;;;6.28;3.00;;;17.50;99.90;;;;;;21049705;28;20324;-76
2023/05/07 13:13:02;;;;;;;5.00;3.33;;;17.20;99.90;;;;;;20996494;28;20028;-77
2023/05/07 13:23:04;;;;;;;;;;;17.10;99.90;;;;;;20992406;28;20031;-77
2023/05/07 13:33:05;;;;;;;6.10;4.03;;;17.40;99.90;;;;;;21012956;28;19908;-76
2023/05/07 13:43:07;;;;;;;6.05;4.30;;;17.50;99.90;;;;;;20983581;28;20495;-76
2023/05/07 13:53:08;;;;;;;;;;;18.00;99.90;;;;;;21054020;28;20418;-77
2023/05/07 14:03:09;;;;;;;8.85;4.50;;;18.50;99.90;;;;;;21001321;28;19912;-77
2023/05/07 14:13:10;;;;;;;3.43;2.33;;;18.00;99.90;;;;;;20991889;28;20484;-77
2023/05/07 14:23:11;;;;;;;2.97;2.03;;;18.30;99.90;;;;;;21013510;28;20125;-77
2023/05/07 14:33:12;;;;;;;7.90;2.10;;;18.90;99.90;;;;;;21050547;28;20025;-77
2023/05/07 14:43:12;;;;;;;6.87;1.77;;;18.60;99.90;;;;;;21036894;28;20119;-77
2023/05/07 14:53:13;;;;;;;7.23;2.10;;;19.00;99.90;;;;;;21035271;28;20024;-77
2023/05/07 15:03:14;;;;;;;3.67;2.47;;;18.30;99.90;;;;;;21045661;28;20036;-77
2023/05/07 15:13:17;;;;;;;4.25;2.33;;;18.30;99.90;;;;;;20997380;28;20051;-77
2023/05/07 15:23:18;;;;;;;3.07;2.13;;;18.50;99.90;;;;;;21003357;28;20024;-77
2023/05/07 15:33:23;;;;;;;8.95;2.55;;;18.10;99.90;;;;;;21013810;28;20602;-77
2023/05/07 15:43:25;;;;;;;3.65;2.47;;;17.80;99.90;;;;;;21001547;28;20122;-77
2023/05/07 15:53:25;;;;;;;3.92;2.30;;;17.70;99.90;;;;;;21057429;28;20059;-79
2023/05/07 16:03:27;;;;;;;4.83;2.50;;;17.70;99.90;;;;;;21029952;28;20047;-77
2023/05/07 16:13:28;;;;;;;4.53;2.47;;;17.70;99.90;;;;;;21057722;28;20024;-78
2023/05/07 16:23:30;;;;;;;5.77;2.53;;;17.70;99.90;;;;;;21081429;28;20034;-78
2023/05/07 16:33:31;;;;;;;14.27;6.72;;;17.60;99.90;;;;;;21095513;28;20047;-77
2023/05/07 16:43:31;;;;;;;4.37;3.07;;;17.50;99.90;;;;;;21014989;28;20474;-77
2023/05/07 16:53:32;;;;;;;6.03;3.00;;;17.40;99.90;;;;;;21017002;28;20032;-77
2023/05/07 17:03:33;;;;;;;5.67;3.17;;;17.30;99.90;;;;;;21081412;28;20410;-77
2023/05/07 17:13:34;;;;;;;5.83;3.27;;;17.20;99.90;;;;;;21012052;28;20050;-77
2023/05/07 17:23:35;;;;;;;3.20;2.13;;;17.10;99.90;;;;;;20975373;28;20036;-76
2023/05/07 17:33:36;;;;;;;4.60;1.73;;;16.80;99.90;;;;;;21014099;28;20028;-78
2023/05/07 17:43:36;;;;;;;5.40;1.57;;;16.50;99.90;;;;;;21056052;28;20028;-78
2023/05/07 17:53:38;;;;;;;4.23;1.40;;;15.70;99.90;;;;;;21040687;28;20050;-78
2023/05/07 18:03:39;;;;;;;2.13;1.23;;;15.60;99.90;;;;;;21064447;28;20028;-77
2023/05/07 18:13:40;;;;;;;4.07;1.38;;;15.60;99.90;;;;;;21031902;28;20035;-78
2023/05/07 18:23:40;;;;;;;5.07;1.40;;;15.60;99.90;;;;;;21032930;22;20048;-79
2023/05/07 18:33:41;;;;;;;1.67;1.17;;;15.50;99.90;;;;;;21093916;28;20040;-79
2023/05/07 18:43:42;;;;;;;3.50;1.40;;;15.20;99.90;;;;;;21094071;28;20024;-77
2023/05/07 18:53:43;;;;;;;8.70;1.37;;;15.10;99.90;;;;;;21095184;28;20055;-78
2023/05/07 19:03:44;;;;;;;4.63;1.27;;;14.90;99.90;;;;;;21155213;28;20031;-78
2023/05/07 19:13:44;;;;;;;2.43;1.30;;;14.90;99.90;;;;;;21116222;28;20096;-78
2023/05/07 19:23:45;;;;;;;2.23;1.37;;;14.70;99.90;;;;;;21125163;28;20425;-79
2023/05/07 19:33:47;;;;;;;3.33;1.60;;;14.60;99.90;;;;;;21177693;28;20039;-78
2023/05/07 19:43:48;;;;;;;3.55;1.75;;;14.50;99.90;;;;;;21118928;28;20024;-79
2023/05/07 19:53:49;;;;;;;5.93;1.60;;;14.50;99.90;;;;;;21098223;28;20027;-76
2023/05/07 20:03:49;;;;;;;3.40;1.63;;;14.40;99.90;;;;;;21124928;28;20032;-78
2023/05/07 20:13:50;;;;;;;2.93;1.60;;;14.40;99.90;;;;;;21129748;28;20024;-78
2023/05/07 20:23:51;;;;;;;2.50;1.77;;;14.50;99.90;;;;;;21133492;28;20051;-78
2023/05/07 20:33:52;;;;;;;2.57;1.83;;;14.40;99.90;;;;;;21139687;28;20051;-78
2023/05/07 20:43:53;;;;;;;4.03;2.43;;;14.30;99.90;;;;;;21122495;28;20024;-78
2023/05/07 20:53:54;;;;;;;3.27;2.37;;;14.40;99.90;;;;;;21128382;28;20038;-78
2023/05/07 21:03:54;;;;;;;5.10;2.50;;;14.30;99.90;;;;;;21120387;28;20114;-78
2023/05/07 21:13:55;;;;;;;4.27;2.90;;;14.30;99.90;;;;;;21136986;28;20020;-79
2023/05/07 21:23:56;;;;;;;6.03;2.20;;;14.30;99.90;;;;;;21136924;28;20039;-77
2023/05/07 21:33:57;;;;;;;3.17;2.47;;;14.30;99.90;;;;;;21105889;28;20032;-77
2023/05/07 21:43:58;;;;;;;5.20;3.03;;;14.30;99.90;;;;;;21051603;28;20028;-78
2023/05/07 21:53:59;;;;;;;5.47;3.40;;;14.30;99.90;;;;;;21010960;28;20032;-79
2023/05/07 22:04:00;;;;;;;8.97;4.90;;;14.30;99.90;;;;;;21010795;28;20196;-78
2023/05/07 22:14:00;;;;;;;9.83;5.00;;;14.20;99.90;;;;;;21011742;28;20102;-78
2023/05/07 22:24:01;;;;;;;7.80;5.43;;;14.20;99.90;;;;;;21073859;28;20557;-78
2023/05/07 22:34:02;;;;;;;10.83;5.50;;;14.20;99.90;;;;;;21157773;28;20090;-78
2023/05/07 22:44:03;;;;;;;9.13;6.10;;;14.10;99.90;;;;;;21128332;28;20386;-77
2023/05/07 22:54:04;;;;;;;11.10;6.70;;;14.10;99.90;;;;;;21109527;28;20032;-79
2023/05/07 23:04:04;;;;;;;10.07;6.53;;;14.10;99.90;;;;;;21108785;28;20042;-78
2023/05/07 23:14:05;;;;;;;10.77;6.57;;;14.10;99.90;;;;;;21107839;28;20428;-79
2023/05/07 23:24:06;;;;;;;14.68;7.50;;;14.00;99.90;;;;;;21108485;28;20056;-77
2023/05/07 23:34:07;;;;;;;8.43;4.57;;;14.00;99.90;;;;;;21108945;28;20028;-78
2023/05/07 23:44:08;;;;;;;7.67;5.47;;;13.90;99.90;;;;;;21135606;28;20039;-78
2023/05/07 23:54:09;;;;;;;8.50;5.77;;;13.80;99.90;;;;;;21104286;28;20036;-78
